Ceuta, Spain
Current Conditions -  °F | °C
As of 10:50 PM on Thursday 27 Nov 2014 (Local Time) from LXGB Reporting Station
Rain Showers Rain Showers  
Wind Chill: 57°   Ceiling: 5000
Heat Index: 57°   Visibility: 6mi
Dew Point: 54°   Wind: 7mph
Humidity: 88%   Direction: 220°SW
Pressure: 29.38"   Gusts: NA
Location:  35.89°N, 5.32°W
Report Text: LXGB 272150Z 22006KT 9999 -SHRA FEW023 BKN050 14/12 Q0995
Loading
Personal Weather Stations






























Interactive Weather Map New forecast layout! Learn more

10-Day Weather Forecast

Advertisements
Track Severe Weather on mobile